Terminal Aerodrome Forecast
Issued by NWS Cleveland, OH

Home | Current Version | Previous Version | Graphics & Text | Print | Product List | Glossary On
Versions: 1 2 3 4 5 6 7 8 9 10 11 12 13 14 15 16 17 18
000
FTUS41 KCLE 172300
TAFMFD
TAF
KMFD 172340Z 1800/1824 24010G18KT P6SM OVC060
     FM180300 26013G20KT P6SM VCSH BKN025 OVC050
      TEMPO 1804/1808 26015KT 5SM -SHRA BKN018
     FM180800 29012G22KT P6SM VCSH SCT009 OVC015
     FM181600 30012G22KT P6SM OVC022=

USA.gov is the U.S. government's official web portal to all federal, state and local government web resources and services.